Time;durP1;ratioP1;P1;durP2;ratioP2;P2;SDS_P1;SDS_P2;PMS_P1;PMS_P2;Temp;Humidity;BMP_temperature;BMP_pressure;BME280_temperature;BME280_humidity;BME280_pressure;Samples;Min_cycle;Max_cycle;Signal;HPM_P1;HPM_P2
2021/04/14 00:01:25;;;;;;;1.00;0.60;;;18.40;67.80;;;;;;4976370;28;20314;-92
2021/04/14 00:03:55;;;;;;;0.53;0.50;;;18.30;68.90;;;;;;4977267;28;20594;-91
2021/04/14 00:06:30;;;;;;;1.43;0.60;;;18.20;70.30;;;;;;4977227;28;20211;-91
2021/04/14 00:09:01;;;;;;;1.73;0.83;;;18.30;71.50;;;;;;4975849;28;20269;-91
2021/04/14 00:11:31;;;;;;;3.17;0.80;;;18.40;71.00;;;;;;4976723;28;20211;-91
2021/04/14 00:14:02;;;;;;;1.00;0.70;;;18.30;70.20;;;;;;4977225;28;20218;-91
2021/04/14 00:16:33;;;;;;;1.07;0.50;;;18.10;70.20;;;;;;4979842;28;20229;-91
2021/04/14 00:19:04;;;;;;;3.77;0.70;;;18.20;72.50;;;;;;4979861;28;20293;-90
2021/04/14 00:21:36;;;;;;;1.90;0.80;;;18.30;74.20;;;;;;4981076;28;20226;-90
2021/04/14 00:24:07;;;;;;;1.13;0.70;;;18.30;72.70;;;;;;4967474;28;20207;-89
2021/04/14 00:26:38;;;;;;;3.47;0.90;;;18.50;73.70;;;;;;4961898;29;20231;-89
2021/04/14 00:29:09;;;;;;;2.47;0.80;;;18.50;72.70;;;;;;4962827;28;20270;-90
2021/04/14 00:31:40;;;;;;;2.63;0.80;;;18.30;72.40;;;;;;4980271;28;20211;-89
2021/04/14 00:34:14;;;;;;;1.80;0.90;;;18.30;72.30;;;;;;4983521;28;20210;-89
2021/04/14 00:36:48;;;;;;;1.43;0.70;;;18.30;72.00;;;;;;4982344;28;20206;-90
2021/04/14 00:39:21;;;;;;;4.13;0.77;;;18.10;71.10;;;;;;4980019;28;20262;-89
2021/04/14 00:41:53;;;;;;;3.43;0.90;;;17.90;72.20;;;;;;4979867;28;20211;-89
2021/04/14 00:44:23;;;;;;;2.17;0.80;;;17.70;72.60;;;;;;4986580;28;20230;-89
2021/04/14 00:46:54;;;;;;;0.83;0.60;;;17.60;72.40;;;;;;4996333;28;20231;-89
2021/04/14 00:49:25;;;;;;;0.73;0.50;;;17.60;72.70;;;;;;4987906;28;20187;-89
2021/04/14 00:51:57;;;;;;;2.77;0.60;;;17.50;73.20;;;;;;4967485;28;20636;-89
2021/04/14 00:54:28;;;;;;;2.53;0.60;;;17.50;72.10;;;;;;4956754;28;20211;-90
2021/04/14 00:56:58;;;;;;;0.90;0.60;;;17.60;72.70;;;;;;4959560;28;20227;-90
2021/04/14 00:59:28;;;;;;;1.80;0.70;;;17.50;73.00;;;;;;4956897;28;20307;-90
2021/04/14 01:01:58;;;;;;;3.03;1.17;;;17.40;74.20;;;;;;4955877;28;20223;-89
2021/04/14 01:04:28;;;;;;;1.27;0.83;;;17.40;73.80;;;;;;4956720;28;20203;-90
2021/04/14 01:06:59;;;;;;;2.63;0.90;;;17.20;74.30;;;;;;4956599;29;20218;-90
2021/04/14 01:09:30;;;;;;;1.23;0.80;;;17.10;76.10;;;;;;4956324;29;20231;-90
2021/04/14 01:12:00;;;;;;;0.97;0.50;;;17.10;76.80;;;;;;4956980;28;20657;-89
2021/04/14 01:14:30;;;;;;;1.00;0.80;;;17.30;77.10;;;;;;4956709;28;20696;-90
2021/04/14 01:17:00;;;;;;;1.77;0.80;;;17.50;76.70;;;;;;4956986;28;20231;-90
2021/04/14 01:19:31;;;;;;;1.83;0.70;;;17.60;75.40;;;;;;4956707;28;20306;-90
2021/04/14 01:22:03;;;;;;;0.83;0.60;;;17.60;75.10;;;;;;4955869;28;20263;-90
2021/04/14 01:24:34;;;;;;;3.77;0.87;;;17.70;76.20;;;;;;4974686;28;20214;-89
2021/04/14 01:27:05;;;;;;;1.80;0.70;;;17.70;75.00;;;;;;4980891;28;20207;-89
2021/04/14 01:29:35;;;;;;;1.97;0.90;;;17.60;77.40;;;;;;4981784;28;20207;-89
2021/04/14 01:32:07;;;;;;;2.17;0.73;;;17.40;76.30;;;;;;4980311;28;20342;-89
2021/04/14 01:34:38;;;;;;;2.70;0.73;;;17.40;76.60;;;;;;4975584;28;20246;-89
2021/04/14 01:37:10;;;;;;;1.30;0.80;;;17.30;77.50;;;;;;4975290;28;20210;-90
2021/04/14 01:39:40;;;;;;;4.57;1.07;;;17.20;77.20;;;;;;4975498;28;20239;-90
2021/04/14 01:42:10;;;;;;;5.30;0.87;;;17.00;77.40;;;;;;4976439;28;20282;-90
2021/04/14 01:44:40;;;;;;;1.30;0.80;;;16.60;78.30;;;;;;4961589;28;20359;-90
2021/04/14 01:47:10;;;;;;;2.23;0.80;;;16.50;78.10;;;;;;4955264;28;20223;-91
2021/04/14 01:49:40;;;;;;;1.53;0.70;;;16.60;78.20;;;;;;4958087;28;20219;-91
2021/04/14 01:52:13;;;;;;;2.87;1.00;;;16.20;76.60;;;;;;4955100;28;20603;-92
2021/04/14 01:54:44;;;;;;;3.60;1.00;;;16.20;76.90;;;;;;4957887;28;20216;-92
2021/04/14 01:57:16;;;;;;;1.93;0.87;;;16.00;78.00;;;;;;4955571;28;20255;-92
2021/04/14 01:59:46;;;;;;;2.07;0.70;;;15.70;77.50;;;;;;4958708;28;20212;-92
2021/04/14 02:02:16;;;;;;;2.57;0.70;;;15.40;78.90;;;;;;4956268;28;20576;-92
2021/04/14 02:04:47;;;;;;;1.80;1.00;;;15.10;78.80;;;;;;4956731;28;20216;-93
2021/04/14 02:07:19;;;;;;;1.33;0.80;;;14.90;78.70;;;;;;4958082;28;20204;-92
2021/04/14 02:09:49;;;;;;;5.73;1.40;;;14.80;79.30;;;;;;4956392;28;20235;-93
2021/04/14 02:12:20;;;;;;;2.90;0.70;;;14.60;79.70;;;;;;4961556;28;20258;-93
2021/04/14 02:14:51;;;;;;;2.67;0.57;;;14.50;79.80;;;;;;4960758;28;20323;-92
2021/04/14 02:17:22;;;;;;;1.30;0.67;;;14.40;80.10;;;;;;4960743;28;20310;-92
2021/04/14 02:19:53;;;;;;;0.77;0.70;;;14.30;81.10;;;;;;4963467;28;20211;-93
2021/04/14 02:22:26;;;;;;;1.10;0.67;;;14.10;80.00;;;;;;4965926;28;20334;-92
2021/04/14 02:24:56;;;;;;;2.27;0.73;;;14.00;80.90;;;;;;4982634;28;20214;-91
2021/04/14 02:27:25;;;;;;;2.93;1.00;;;13.90;81.60;;;;;;4982880;28;20215;-92
2021/04/14 02:29:56;;;;;;;1.83;0.80;;;13.80;82.20;;;;;;4988506;28;20651;-91
2021/04/14 02:32:27;;;;;;;2.40;0.80;;;13.80;81.70;;;;;;5000581;28;20292;-91
2021/04/14 02:34:58;;;;;;;1.47;0.80;;;13.70;81.30;;;;;;4995523;28;20231;-92
2021/04/14 02:37:30;;;;;;;2.00;0.77;;;13.60;80.30;;;;;;4980118;28;20222;-92
2021/04/14 02:40:01;;;;;;;1.13;0.73;;;13.60;79.70;;;;;;4981974;28;20210;-91
2021/04/14 02:42:31;;;;;;;1.90;0.80;;;13.50;82.10;;;;;;4980759;28;20383;-91
2021/04/14 02:45:01;;;;;;;1.33;0.63;;;13.30;83.00;;;;;;4986230;28;20203;-91
2021/04/14 02:47:32;;;;;;;3.70;0.80;;;13.30;80.90;;;;;;4982292;28;20203;-91
2021/04/14 02:50:02;;;;;;;0.90;0.70;;;13.20;79.80;;;;;;4982804;28;20207;-92
2021/04/14 02:52:35;;;;;;;1.73;0.60;;;13.20;78.50;;;;;;4985787;28;20218;-92
2021/04/14 02:55:07;;;;;;;1.30;0.63;;;13.20;78.60;;;;;;4984435;28;20211;-92
2021/04/14 02:57:38;;;;;;;1.60;0.80;;;13.00;79.60;;;;;;4981650;28;20215;-92
2021/04/14 03:00:10;;;;;;;2.50;0.90;;;13.00;77.60;;;;;;4982191;28;20297;-92
2021/04/14 03:02:41;;;;;;;1.43;0.70;;;12.90;78.90;;;;;;4984634;28;20325;-91
2021/04/14 03:05:14;;;;;;;2.00;0.80;;;12.80;81.80;;;;;;4984308;28;20234;-92
2021/04/14 03:07:46;;;;;;;0.83;0.60;;;12.60;82.20;;;;;;4984234;28;20214;-91
2021/04/14 03:10:16;;;;;;;2.63;0.87;;;12.60;80.60;;;;;;4992749;28;20195;-92
2021/04/14 03:12:47;;;;;;;1.10;0.70;;;12.50;78.90;;;;;;4997554;28;20223;-92
2021/04/14 03:15:20;;;;;;;1.93;1.37;;;12.50;79.00;;;;;;4997337;28;20225;-92
2021/04/14 03:17:51;;;;;;;0.90;0.60;;;12.50;79.30;;;;;;4982936;28;20258;-92
2021/04/14 03:20:23;;;;;;;0.63;0.60;;;12.40;80.30;;;;;;4979982;28;20207;-92
2021/04/14 03:22:56;;;;;;;3.60;0.60;;;12.30;79.00;;;;;;4976818;28;20259;-91
2021/04/14 03:25:31;;;;;;;2.10;0.63;;;12.30;79.10;;;;;;4978608;28;20265;-91
2021/04/14 03:28:07;;;;;;;1.43;0.63;;;12.20;79.70;;;;;;4978223;28;20210;-91
2021/04/14 03:30:37;;;;;;;1.13;0.80;;;12.10;79.70;;;;;;4978458;28;20203;-92
2021/04/14 03:33:08;;;;;;;1.30;0.70;;;12.00;81.60;;;;;;4977355;28;20289;-91
2021/04/14 03:35:38;;;;;;;0.97;0.70;;;11.90;80.70;;;;;;4978022;28;20229;-91
2021/04/14 03:38:11;;;;;;;1.33;0.80;;;11.90;81.40;;;;;;4977156;28;20317;-91
2021/04/14 03:40:42;;;;;;;1.83;0.60;;;11.90;81.10;;;;;;4978062;28;20655;-91
2021/04/14 03:43:12;;;;;;;2.50;0.90;;;11.80;83.10;;;;;;4976480;28;20258;-90
2021/04/14 03:45:44;;;;;;;1.90;0.97;;;11.70;82.40;;;;;;4977242;28;20207;-90
2021/04/14 03:48:15;;;;;;;1.00;0.90;;;11.60;85.70;;;;;;4977910;28;20297;-91
2021/04/14 03:50:46;;;;;;;1.40;0.87;;;11.50;83.50;;;;;;4980301;28;20203;-92
2021/04/14 03:53:24;;;;;;;2.60;0.90;;;11.40;84.90;;;;;;4979006;28;20207;-92
2021/04/14 03:55:56;;;;;;;1.93;1.03;;;11.40;85.20;;;;;;4982732;28;20211;-91
2021/04/14 03:58:27;;;;;;;2.13;0.90;;;11.30;87.80;;;;;;4979701;28;20214;-92
2021/04/14 04:01:00;;;;;;;1.93;1.03;;;11.20;88.20;;;;;;4982068;28;20299;-92
2021/04/14 04:03:32;;;;;;;1.07;0.60;;;11.10;89.00;;;;;;4978119;28;20316;-91
2021/04/14 04:06:01;;;;;;;2.20;0.80;;;10.90;88.40;;;;;;4980293;28;20227;-92
2021/04/14 04:08:33;;;;;;;2.73;0.83;;;10.80;89.60;;;;;;4982484;28;20215;-93
2021/04/14 04:11:04;;;;;;;2.17;0.73;;;10.80;89.90;;;;;;4986241;28;20206;-93
2021/04/14 04:13:34;;;;;;;0.70;0.70;;;10.70;88.00;;;;;;4983334;28;20223;-91
2021/04/14 04:16:04;;;;;;;1.00;0.73;;;10.70;88.50;;;;;;4982961;28;20674;-92
2021/04/14 04:18:36;;;;;;;2.10;0.80;;;10.60;90.20;;;;;;4979970;28;20211;-92
2021/04/14 04:21:08;;;;;;;1.67;0.70;;;10.60;90.80;;;;;;4980630;28;20659;-92
2021/04/14 04:23:40;;;;;;;1.43;0.60;;;10.50;90.70;;;;;;4979868;28;20275;-91
2021/04/14 04:26:11;;;;;;;1.13;0.70;;;10.40;90.90;;;;;;4978713;28;20226;-92
2021/04/14 04:28:43;;;;;;;1.83;0.70;;;10.40;91.60;;;;;;4976935;28;20222;-91
2021/04/14 04:31:13;;;;;;;0.97;0.60;;;10.40;91.30;;;;;;4959438;28;20239;-91
2021/04/14 04:33:43;;;;;;;2.37;0.80;;;10.30;92.20;;;;;;4983904;28;20219;-91
2021/04/14 04:36:14;;;;;;;1.30;0.70;;;10.20;92.60;;;;;;4984592;28;20225;-90
2021/04/14 04:38:49;;;;;;;1.40;0.90;;;10.10;92.40;;;;;;4985835;28;20203;-91
2021/04/14 04:41:19;;;;;;;2.43;1.00;;;10.10;92.50;;;;;;4976615;28;20202;-92
2021/04/14 04:43:49;;;;;;;1.13;0.80;;;10.00;92.40;;;;;;4976783;28;20241;-91
2021/04/14 04:46:19;;;;;;;1.13;0.70;;;10.00;92.00;;;;;;4977219;28;20236;-92
2021/04/14 04:48:49;;;;;;;3.03;0.80;;;10.00;92.70;;;;;;4976258;28;20242;-92
2021/04/14 04:51:20;;;;;;;1.37;0.80;;;9.90;93.60;;;;;;4976234;28;20269;-92
2021/04/14 04:53:52;;;;;;;0.90;0.80;;;9.90;93.90;;;;;;4976952;28;20277;-92
2021/04/14 04:56:22;;;;;;;1.80;0.80;;;9.80;93.50;;;;;;4976836;28;20211;-92
2021/04/14 04:58:53;;;;;;;1.23;0.80;;;9.70;94.30;;;;;;4976827;28;20219;-92
2021/04/14 05:01:24;;;;;;;3.30;0.83;;;9.70;94.90;;;;;;4975549;28;20199;-92
2021/04/14 05:03:55;;;;;;;3.10;0.80;;;9.60;95.10;;;;;;4976895;28;20231;-92
2021/04/14 05:06:26;;;;;;;3.00;0.90;;;9.50;95.50;;;;;;4978925;28;20222;-92
2021/04/14 05:08:58;;;;;;;2.83;0.80;;;9.40;95.60;;;;;;4980104;28;20601;-92
2021/04/14 05:11:29;;;;;;;1.50;0.73;;;9.40;95.50;;;;;;4980858;28;20254;-92
2021/04/14 05:13:59;;;;;;;2.90;0.83;;;9.30;96.20;;;;;;4981048;28;20223;-91
2021/04/14 05:16:29;;;;;;;2.70;1.13;;;9.20;96.80;;;;;;4980406;28;20203;-91
2021/04/14 05:19:00;;;;;;;3.63;0.80;;;9.10;96.80;;;;;;4977470;28;20543;-92
2021/04/14 05:21:32;;;;;;;1.70;0.70;;;9.00;97.00;;;;;;4976170;28;20572;-92
2021/04/14 05:24:04;;;;;;;1.27;0.70;;;9.00;97.00;;;;;;4976356;28;20758;-92
2021/04/14 05:26:34;;;;;;;0.90;0.80;;;8.90;97.10;;;;;;4976793;28;20215;-92
2021/04/14 05:29:07;;;;;;;1.47;0.93;;;8.90;97.60;;;;;;4976674;28;20258;-92
2021/04/14 05:31:41;;;;;;;1.53;1.03;;;8.80;97.70;;;;;;4977729;28;20321;-92
2021/04/14 05:34:12;;;;;;;2.67;0.80;;;8.70;97.70;;;;;;4996806;28;20209;-92
2021/04/14 05:36:43;;;;;;;2.47;1.00;;;8.70;98.00;;;;;;4996791;28;20195;-92
2021/04/14 05:39:16;;;;;;;2.90;1.00;;;8.60;98.00;;;;;;4992098;28;20674;-92
2021/04/14 05:41:48;;;;;;;1.30;1.10;;;8.60;98.40;;;;;;4975594;28;20213;-90
2021/04/14 05:44:18;;;;;;;1.43;0.80;;;8.50;98.60;;;;;;4976509;28;20330;-92
2021/04/14 05:46:49;;;;;;;1.27;0.93;;;8.50;99.40;;;;;;4978361;28;20211;-92
2021/04/14 05:49:20;;;;;;;1.87;0.93;;;8.40;99.20;;;;;;4980227;28;20651;-91
2021/04/14 05:51:51;;;;;;;5.70;1.00;;;8.40;99.20;;;;;;4979063;28;20207;-92
2021/04/14 05:54:22;;;;;;;0.80;0.80;;;8.30;99.20;;;;;;4987013;28;20217;-92
2021/04/14 05:56:52;;;;;;;2.30;0.80;;;8.30;99.50;;;;;;4989062;28;20211;-92
2021/04/14 05:59:23;;;;;;;4.83;1.00;;;8.20;99.70;;;;;;4990153;28;20211;-92
2021/04/14 06:01:54;;;;;;;1.83;0.97;;;8.10;99.90;;;;;;4990589;28;20218;-92
2021/04/14 06:04:25;;;;;;;2.37;0.83;;;8.10;99.90;;;;;;4987085;28;20268;-92
2021/04/14 06:06:56;;;;;;;1.30;0.80;;;8.10;99.90;;;;;;4987736;28;20202;-91
2021/04/14 06:09:28;;;;;;;1.50;1.10;;;8.10;99.90;;;;;;4988929;28;20258;-92
2021/04/14 06:11:59;;;;;;;1.37;0.90;;;8.00;99.90;;;;;;4989858;28;20202;-91
2021/04/14 06:14:29;;;;;;;1.43;1.20;;;8.00;99.90;;;;;;4985487;28;20250;-92
2021/04/14 06:17:00;;;;;;;1.97;1.17;;;7.90;99.90;;;;;;4981869;28;20246;-92
2021/04/14 06:19:31;;;;;;;5.70;1.30;;;7.90;99.90;;;;;;4980238;28;20305;-92
2021/04/14 06:22:01;;;;;;;5.07;1.07;;;7.90;99.90;;;;;;4979906;28;20206;-92
2021/04/14 06:24:34;;;;;;;1.73;1.00;;;7.90;99.90;;;;;;4980977;28;20547;-91
2021/04/14 06:27:07;;;;;;;3.37;1.27;;;7.80;99.90;;;;;;4963405;28;20236;-91
2021/04/14 06:29:37;;;;;;;3.47;1.43;;;7.80;99.90;;;;;;4975762;28;20294;-90
2021/04/14 06:32:09;;;;;;;3.60;1.10;;;7.80;99.90;;;;;;4998612;28;20286;-91
2021/04/14 06:34:40;;;;;;;1.67;1.10;;;7.80;99.90;;;;;;4998461;28;20234;-91
2021/04/14 06:37:12;;;;;;;3.37;1.03;;;7.80;99.90;;;;;;5001161;28;20222;-91
2021/04/14 06:39:42;;;;;;;1.83;0.90;;;7.70;99.90;;;;;;4997059;28;20301;-91
2021/04/14 06:42:33;;;;;;;1.90;1.00;;;7.70;99.90;;;;;;4983088;28;20203;-91
2021/04/14 06:45:12;;;;;;;2.40;0.80;;;7.70;99.90;;;;;;4982434;28;20214;-91
2021/04/14 06:48:04;;;;;;;1.80;0.70;;;7.70;99.90;;;;;;4980955;28;20282;-91
2021/04/14 06:50:41;;;;;;;1.70;0.83;;;7.60;99.90;;;;;;4979031;28;20253;-91
2021/04/14 06:53:36;;;;;;;1.13;0.63;;;7.60;99.90;;;;;;4979639;28;20213;-91
2021/04/14 06:56:15;;;;;;;2.63;0.97;;;7.60;99.90;;;;;;4978354;28;20267;-91
2021/04/14 06:58:48;;;;;;;1.67;0.90;;;7.50;99.90;;;;;;4983962;28;20210;-92
2021/04/14 07:01:22;;;;;;;2.20;0.90;;;7.50;99.90;;;;;;4978024;28;20219;-92
2021/04/14 07:04:00;;;;;;;1.53;0.93;;;7.50;99.90;;;;;;4982795;28;20642;-91
2021/04/14 07:06:32;;;;;;;3.50;0.87;;;7.50;99.90;;;;;;4977491;28;20210;-92
2021/04/14 07:09:09;;;;;;;2.17;0.90;;;7.50;99.90;;;;;;4978764;28;20265;-91
2021/04/14 07:11:42;;;;;;;3.43;1.17;;;7.40;99.90;;;;;;4982754;28;20214;-92
2021/04/14 07:14:14;;;;;;;2.60;1.00;;;7.40;99.90;;;;;;4977945;28;20250;-92
2021/04/14 07:17:02;;;;;;;2.63;0.90;;;7.40;99.90;;;;;;4978699;28;20211;-92
2021/04/14 07:19:54;;;;;;;2.83;1.03;;;7.40;99.90;;;;;;4984075;28;20213;-91
2021/04/14 07:22:36;;;;;;;2.00;0.80;;;7.40;99.90;;;;;;4982080;28;20214;-91
2021/04/14 07:25:09;;;;;;;2.63;0.90;;;7.30;99.90;;;;;;4983299;28;20256;-91
2021/04/14 07:27:52;;;;;;;3.20;0.90;;;7.30;99.90;;;;;;4986375;28;20211;-90
2021/04/14 07:30:27;;;;;;;2.80;0.97;;;7.30;99.90;;;;;;4980104;28;20693;-91
2021/04/14 07:33:16;;;;;;;2.00;0.90;;;7.20;99.90;;;;;;4982191;28;20233;-91
2021/04/14 07:35:55;;;;;;;2.40;0.70;;;7.20;99.90;;;;;;4986906;28;20209;-90
2021/04/14 07:38:35;;;;;;;1.13;0.77;;;7.20;99.90;;;;;;4986593;28;20242;-91
2021/04/14 07:41:16;;;;;;;3.80;0.80;;;7.20;99.90;;;;;;4984050;28;20211;-90
2021/04/14 07:43:57;;;;;;;2.17;0.90;;;7.20;99.90;;;;;;4989979;28;20294;-91
2021/04/14 07:46:29;;;;;;;1.67;0.90;;;7.20;99.90;;;;;;4983898;28;20203;-92
2021/04/14 07:49:02;;;;;;;2.63;0.97;;;7.10;99.90;;;;;;4967677;28;20211;-91
2021/04/14 07:51:32;;;;;;;1.83;1.10;;;7.00;99.90;;;;;;4982483;28;20354;-91
2021/04/14 07:54:07;;;;;;;2.90;0.90;;;7.00;99.90;;;;;;4984725;28;20228;-92
2021/04/14 07:56:48;;;;;;;2.87;0.97;;;6.90;99.90;;;;;;4993967;28;20210;-91
2021/04/14 07:59:30;;;;;;;1.47;1.10;;;7.00;99.90;;;;;;4995876;28;20191;-90
2021/04/14 08:02:05;;;;;;;2.20;0.80;;;6.90;99.90;;;;;;4983160;28;20204;-92
2021/04/14 08:04:37;;;;;;;1.40;0.90;;;6.80;99.90;;;;;;4982022;28;20238;-90
2021/04/14 08:07:15;;;;;;;1.40;0.90;;;6.80;99.90;;;;;;4980655;28;20214;-90
2021/04/14 08:09:51;;;;;;;0.97;0.80;;;6.70;99.90;;;;;;4981880;28;20218;-91
2021/04/14 08:12:30;;;;;;;1.83;1.17;;;6.60;99.90;;;;;;4977942;28;20272;-91
2021/04/14 08:15:26;;;;;;;2.03;0.80;;;6.60;99.90;;;;;;4977525;28;20249;-90
2021/04/14 08:18:10;;;;;;;1.90;1.20;;;6.60;99.90;;;;;;4978344;28;20242;-91
2021/04/14 08:20:42;;;;;;;1.20;0.87;;;6.60;99.90;;;;;;4977492;28;20592;-90
2021/04/14 08:23:15;;;;;;;1.73;0.83;;;6.60;99.90;;;;;;4977198;28;20336;-90
2021/04/14 08:25:48;;;;;;;0.97;0.87;;;6.60;99.90;;;;;;4977366;28;20267;-90
2021/04/14 08:28:29;;;;;;;2.13;1.17;;;6.50;99.90;;;;;;4977425;28;20238;-90
2021/04/14 08:31:12;;;;;;;3.63;0.77;;;6.50;99.90;;;;;;4977260;28;20265;-90
2021/04/14 08:33:43;;;;;;;2.07;1.00;;;6.50;99.90;;;;;;4977932;28;20684;-90
2021/04/14 08:36:20;;;;;;;2.30;1.00;;;6.40;99.90;;;;;;4977281;28;20327;-90
2021/04/14 08:38:51;;;;;;;1.70;0.80;;;6.40;99.90;;;;;;4976989;28;20240;-90
2021/04/14 08:41:29;;;;;;;4.53;1.00;;;6.30;99.90;;;;;;4975887;28;20316;-91
2021/04/14 08:44:11;;;;;;;2.17;1.20;;;6.30;99.90;;;;;;4977034;28;20321;-91
2021/04/14 08:46:44;;;;;;;2.70;0.90;;;6.30;99.90;;;;;;4976751;28;20258;-91
2021/04/14 08:49:22;;;;;;;4.00;0.97;;;6.30;99.90;;;;;;4976850;28;20578;-90
2021/04/14 08:51:54;;;;;;;3.77;0.90;;;6.30;99.90;;;;;;4976449;28;20333;-90
2021/04/14 08:54:28;;;;;;;1.37;1.00;;;6.30;99.90;;;;;;4977039;28;20207;-91
2021/04/14 08:57:01;;;;;;;2.40;0.60;;;6.30;99.90;;;;;;4977553;28;20747;-91
2021/04/14 08:59:32;;;;;;;2.20;1.10;;;6.20;99.90;;;;;;4977075;28;20215;-91
2021/04/14 09:02:07;;;;;;;1.90;1.00;;;6.20;99.90;;;;;;4985242;28;20249;-91
2021/04/14 09:04:44;;;;;;;5.43;1.33;;;6.20;99.90;;;;;;4980379;28;20238;-91
2021/04/14 09:07:16;;;;;;;3.13;1.30;;;6.10;99.90;;;;;;4979981;28;20261;-91
2021/04/14 09:09:49;;;;;;;4.07;1.93;;;6.10;99.90;;;;;;4976618;28;20237;-91
2021/04/14 09:12:32;;;;;;;3.53;2.10;;;6.10;99.90;;;;;;4976988;28;20210;-92
2021/04/14 09:15:04;;;;;;;5.37;3.17;;;6.00;99.90;;;;;;4977288;28;20250;-91
2021/04/14 09:17:36;;;;;;;6.00;3.27;;;6.00;99.90;;;;;;4976133;28;20207;-92
2021/04/14 09:20:19;;;;;;;3.47;2.20;;;6.00;99.90;;;;;;4976558;28;20714;-91
2021/04/14 09:23:01;;;;;;;3.63;2.30;;;6.00;99.90;;;;;;4976246;28;20565;-91
2021/04/14 09:25:39;;;;;;;3.63;1.90;;;6.00;99.90;;;;;;4980311;28;20211;-90
2021/04/14 09:28:27;;;;;;;4.33;1.77;;;6.00;99.90;;;;;;4980833;28;20278;-91
2021/04/14 09:31:08;;;;;;;2.93;1.57;;;6.00;99.90;;;;;;4983314;28;20207;-91
2021/04/14 09:33:45;;;;;;;3.53;1.47;;;5.90;99.90;;;;;;4978636;28;20644;-91
2021/04/14 09:36:29;;;;;;;1.97;1.20;;;5.90;99.90;;;;;;4980602;28;20699;-91
2021/04/14 09:39:10;;;;;;;2.87;1.20;;;5.90;99.90;;;;;;4980706;28;20659;-89
2021/04/14 09:41:41;;;;;;;1.70;1.10;;;5.80;99.90;;;;;;4979914;28;20222;-89
2021/04/14 09:44:38;;;;;;;1.67;1.00;;;5.80;99.90;;;;;;4976261;28;20258;-90
2021/04/14 09:47:37;;;;;;;2.10;0.93;;;5.80;99.90;;;;;;4978958;28;20213;-90
2021/04/14 09:50:40;;;;;;;1.70;1.10;;;5.70;99.90;;;;;;4972778;28;20306;-90
2021/04/14 09:53:22;;;;;;;1.30;1.20;;;5.60;99.90;;;;;;4976381;28;20210;-90
2021/04/14 09:55:58;;;;;;;2.53;1.60;;;5.60;99.90;;;;;;4979049;28;20206;-91
2021/04/14 09:58:38;;;;;;;1.20;1.10;;;5.50;99.90;;;;;;4975086;28;20207;-90
2021/04/14 10:01:21;;;;;;;1.00;0.90;;;5.50;99.90;;;;;;4988732;28;20283;-90
2021/04/14 10:03:55;;;;;;;1.83;1.00;;;5.50;99.90;;;;;;4995169;28;20230;-90
2021/04/14 10:06:29;;;;;;;2.50;1.03;;;5.40;99.90;;;;;;4992550;28;20217;-90
2021/04/14 10:09:02;;;;;;;1.83;1.10;;;5.40;99.90;;;;;;4982928;28;20211;-90
2021/04/14 10:11:33;;;;;;;4.53;1.43;;;5.30;99.90;;;;;;4982919;28;20222;-91
2021/04/14 10:14:13;;;;;;;1.10;0.80;;;5.30;99.90;;;;;;4985503;28;20241;-91
2021/04/14 10:16:45;;;;;;;1.33;1.20;;;5.30;99.90;;;;;;4991396;28;20258;-91
2021/04/14 10:19:27;;;;;;;2.13;1.10;;;5.20;99.90;;;;;;4993353;28;20298;-90
2021/04/14 10:22:05;;;;;;;2.17;1.20;;;5.10;99.90;;;;;;4986710;28;20207;-90
2021/04/14 10:24:36;;;;;;;2.00;0.80;;;5.10;99.90;;;;;;4980446;28;20230;-90
2021/04/14 10:27:10;;;;;;;2.17;1.23;;;5.00;99.90;;;;;;4981380;28;20743;-90
2021/04/14 10:29:43;;;;;;;2.23;1.20;;;4.90;99.90;;;;;;4985515;28;20660;-90
2021/04/14 10:32:21;;;;;;;1.43;1.20;;;4.90;99.90;;;;;;4987304;28;20203;-89
2021/04/14 10:34:53;;;;;;;4.47;1.30;;;4.90;99.90;;;;;;4987386;28;20216;-89
2021/04/14 10:37:27;;;;;;;1.37;1.07;;;4.80;99.90;;;;;;4983430;28;20211;-90
2021/04/14 10:40:10;;;;;;;1.50;1.10;;;4.80;99.90;;;;;;4981288;28;20663;-90
2021/04/14 10:42:47;;;;;;;1.23;0.80;;;4.70;99.90;;;;;;4978786;28;20207;-89
2021/04/14 10:45:19;;;;;;;1.43;1.00;;;4.70;99.90;;;;;;4983757;28;20599;-87
2021/04/14 10:47:54;;;;;;;3.30;1.03;;;4.60;99.90;;;;;;4993880;28;20258;-87
2021/04/14 10:50:27;;;;;;;1.63;1.13;;;4.70;99.90;;;;;;4989417;28;20214;-90
2021/04/14 10:53:01;;;;;;;1.30;0.90;;;4.60;99.90;;;;;;4980517;28;20253;-90
2021/04/14 10:55:37;;;;;;;1.03;0.77;;;4.60;99.90;;;;;;4981647;28;20241;-90
2021/04/14 10:58:11;;;;;;;1.77;1.07;;;4.60;99.90;;;;;;4978322;28;20226;-90
2021/04/14 11:00:44;;;;;;;1.33;1.10;;;4.60;99.90;;;;;;4980190;28;20203;-90
2021/04/14 11:03:18;;;;;;;1.50;1.30;;;4.60;99.90;;;;;;4979119;28;20277;-90
2021/04/14 11:05:52;;;;;;;2.50;1.30;;;4.60;99.90;;;;;;4987122;28;20224;-90
2021/04/14 11:08:26;;;;;;;3.07;1.03;;;4.60;99.90;;;;;;4987629;28;20210;-90
2021/04/14 11:10:59;;;;;;;1.47;1.00;;;4.60;99.90;;;;;;4987934;28;20634;-90
2021/04/14 11:13:33;;;;;;;1.87;0.80;;;4.60;99.90;;;;;;4980843;28;20313;-90
2021/04/14 11:16:03;;;;;;;1.60;1.00;;;4.50;99.90;;;;;;4977112;28;20208;-90
2021/04/14 11:18:36;;;;;;;2.07;1.10;;;4.50;99.90;;;;;;4978537;28;20218;-91
2021/04/14 11:21:22;;;;;;;1.63;1.10;;;4.40;99.90;;;;;;4978865;28;20207;-91
2021/04/14 11:24:04;;;;;;;2.30;1.07;;;4.40;99.90;;;;;;4978333;28;20230;-91
2021/04/14 11:26:39;;;;;;;1.90;1.00;;;4.40;99.90;;;;;;4979272;28;20281;-90
2021/04/14 11:29:21;;;;;;;2.00;1.00;;;4.30;99.90;;;;;;4979150;28;20210;-90
2021/04/14 11:31:53;;;;;;;3.37;1.10;;;4.30;99.90;;;;;;4983722;28;20230;-90
2021/04/14 11:34:26;;;;;;;2.23;1.07;;;4.20;99.90;;;;;;4988330;28;20203;-90
2021/04/14 11:37:03;;;;;;;2.07;1.13;;;4.20;99.90;;;;;;4988123;28;20238;-90
2021/04/14 11:39:52;;;;;;;4.53;1.17;;;4.20;99.90;;;;;;4987789;28;20210;-90
2021/04/14 11:42:51;;;;;;;1.30;1.13;;;4.20;99.90;;;;;;4977369;28;20203;-91
2021/04/14 11:45:27;;;;;;;4.63;1.43;;;4.10;99.90;;;;;;4977793;28;20230;-90
2021/04/14 11:48:11;;;;;;;3.17;1.03;;;4.10;99.90;;;;;;4978286;28;20211;-90
2021/04/14 11:50:43;;;;;;;6.30;1.20;;;4.10;99.90;;;;;;4978096;28;20694;-91
2021/04/14 11:53:23;;;;;;;2.43;1.57;;;4.00;99.90;;;;;;4977533;28;20704;-90
2021/04/14 11:55:57;;;;;;;2.60;1.10;;;4.00;99.90;;;;;;4980877;28;20233;-91
2021/04/14 11:58:37;;;;;;;1.50;1.20;;;4.00;99.90;;;;;;4986414;28;20629;-90
2021/04/14 12:01:20;;;;;;;5.57;1.70;;;4.00;99.90;;;;;;4986781;28;20211;-91
2021/04/14 12:03:51;;;;;;;2.90;1.43;;;4.00;99.90;;;;;;4981901;28;20234;-91
2021/04/14 12:06:23;;;;;;;1.93;1.23;;;3.90;99.90;;;;;;4977750;28;20241;-91
2021/04/14 12:08:57;;;;;;;2.97;1.20;;;3.90;99.90;;;;;;4977882;28;20210;-93
2021/04/14 12:11:29;;;;;;;4.90;1.43;;;3.90;99.90;;;;;;4976707;28;20269;-92
2021/04/14 12:14:02;;;;;;;1.30;1.13;;;4.00;99.90;;;;;;4977308;28;20656;-91
2021/04/14 12:16:36;;;;;;;2.20;1.13;;;4.00;99.90;;;;;;4977807;28;20250;-91
2021/04/14 12:19:07;;;;;;;1.90;1.20;;;4.00;99.90;;;;;;4977628;28;20210;-91
2021/04/14 12:21:37;;;;;;;1.93;1.20;;;4.00;99.90;;;;;;4977337;28;20644;-91
2021/04/14 12:24:09;;;;;;;3.23;1.60;;;3.90;99.90;;;;;;4979660;28;20230;-90
2021/04/14 12:26:41;;;;;;;2.13;1.23;;;3.90;99.90;;;;;;4979908;28;20258;-91
2021/04/14 12:29:12;;;;;;;2.80;1.80;;;4.00;99.90;;;;;;4978680;28;20258;-93
2021/04/14 12:31:43;;;;;;;3.40;1.87;;;3.80;99.90;;;;;;4976881;28;20207;-90
2021/04/14 12:34:14;;;;;;;3.27;1.77;;;3.70;99.90;;;;;;4977122;28;20230;-91
2021/04/14 12:36:46;;;;;;;3.63;1.90;;;3.70;99.90;;;;;;4977408;28;20211;-91
2021/04/14 12:39:17;;;;;;;2.83;1.60;;;3.60;99.90;;;;;;4986132;28;20207;-91
2021/04/14 12:41:59;;;;;;;3.73;1.50;;;3.60;99.90;;;;;;4991716;28;20207;-90
2021/04/14 12:44:30;;;;;;;5.47;1.50;;;3.50;99.90;;;;;;4972831;28;20260;-90
2021/04/14 12:47:01;;;;;;;3.50;1.77;;;3.50;99.90;;;;;;4961970;28;20207;-91
2021/04/14 12:49:37;;;;;;;2.17;1.37;;;3.50;99.90;;;;;;4961843;28;20437;-90
2021/04/14 12:52:17;;;;;;;3.90;1.87;;;3.40;99.90;;;;;;4958013;29;20259;-89
2021/04/14 12:54:50;;;;;;;3.70;1.77;;;3.40;99.90;;;;;;4961447;28;20214;-92
2021/04/14 12:57:25;;;;;;;1.97;1.60;;;3.40;99.90;;;;;;4961616;28;20685;-90
2021/04/14 13:00:00;;;;;;;8.07;1.40;;;3.40;99.90;;;;;;4957866;29;20286;-91
2021/04/14 13:02:40;;;;;;;3.17;1.50;;;3.30;99.90;;;;;;4959154;28;20671;-91
2021/04/14 13:05:20;;;;;;;1.93;1.33;;;3.30;99.90;;;;;;4959913;28;20242;-91
2021/04/14 13:08:00;;;;;;;2.47;1.50;;;3.30;99.90;;;;;;4960643;28;20222;-91
2021/04/14 13:10:37;;;;;;;2.33;1.30;;;3.30;99.90;;;;;;4959685;28;20212;-91
2021/04/14 13:13:09;;;;;;;1.97;1.20;;;3.40;99.90;;;;;;4957549;28;20207;-91
2021/04/14 13:16:02;;;;;;;1.63;1.13;;;3.30;99.90;;;;;;4957890;28;20322;-90
2021/04/14 13:18:52;;;;;;;2.90;1.20;;;3.30;99.90;;;;;;4964280;29;20210;-90
2021/04/14 13:21:31;;;;;;;4.93;1.60;;;3.30;99.90;;;;;;4959095;28;20250;-91
2021/04/14 13:24:20;;;;;;;2.10;1.20;;;3.40;99.90;;;;;;4963407;29;20235;-89
2021/04/14 13:27:00;;;;;;;3.20;1.13;;;3.40;99.90;;;;;;4968602;28;20214;-89
2021/04/14 13:29:35;;;;;;;1.80;1.40;;;3.30;99.90;;;;;;4971864;28;20215;-89